sensor_id;sensor_type;location;lat;lon;timestamp;P1;durP1;ratioP1;P2;durP2;ratioP2
29538;SDS011;16482;51.046;4.498;2023-11-21T00:01:16;8.82;;;6.80;;
29538;SDS011;16482;51.046;4.498;2023-11-21T00:03:57;8.77;;;6.72;;
29538;SDS011;16482;51.046;4.498;2023-11-21T00:06:32;9.55;;;7.10;;
29538;SDS011;16482;51.046;4.498;2023-11-21T00:09:08;10.07;;;7.43;;
29538;SDS011;16482;51.046;4.498;2023-11-21T00:11:47;9.90;;;7.13;;
29538;SDS011;16482;51.046;4.498;2023-11-21T00:14:18;8.20;;;7.22;;
29538;SDS011;16482;51.046;4.498;2023-11-21T00:16:47;8.32;;;6.45;;
29538;SDS011;16482;51.046;4.498;2023-11-21T00:19:25;8.85;;;7.13;;
29538;SDS011;16482;51.046;4.498;2023-11-21T00:22:04;8.98;;;7.70;;
29538;SDS011;16482;51.046;4.498;2023-11-21T00:25:08;10.05;;;7.57;;
29538;SDS011;16482;51.046;4.498;2023-11-21T00:27:46;10.15;;;7.50;;
29538;SDS011;16482;51.046;4.498;2023-11-21T00:30:32;10.23;;;7.57;;
29538;SDS011;16482;51.046;4.498;2023-11-21T00:33:16;9.98;;;7.95;;
29538;SDS011;16482;51.046;4.498;2023-11-21T00:36:00;8.68;;;7.22;;
29538;SDS011;16482;51.046;4.498;2023-11-21T00:38:50;7.93;;;6.93;;
29538;SDS011;16482;51.046;4.498;2023-11-21T00:41:31;9.00;;;7.25;;
29538;SDS011;16482;51.046;4.498;2023-11-21T00:44:25;8.68;;;7.35;;
29538;SDS011;16482;51.046;4.498;2023-11-21T00:47:10;8.65;;;7.10;;
29538;SDS011;16482;51.046;4.498;2023-11-21T00:49:56;9.40;;;7.20;;
29538;SDS011;16482;51.046;4.498;2023-11-21T00:52:40;8.30;;;7.35;;
29538;SDS011;16482;51.046;4.498;2023-11-21T00:55:17;7.35;;;6.38;;
29538;SDS011;16482;51.046;4.498;2023-11-21T00:57:58;8.27;;;7.32;;
29538;SDS011;16482;51.046;4.498;2023-11-21T01:00:32;9.05;;;6.95;;
29538;SDS011;16482;51.046;4.498;2023-11-21T01:03:31;8.40;;;7.10;;
29538;SDS011;16482;51.046;4.498;2023-11-21T01:05:56;8.82;;;7.25;;
29538;SDS011;16482;51.046;4.498;2023-11-21T01:08:43;8.38;;;7.45;;
29538;SDS011;16482;51.046;4.498;2023-11-21T01:11:21;8.55;;;7.28;;
29538;SDS011;16482;51.046;4.498;2023-11-21T01:14:18;7.88;;;7.00;;
29538;SDS011;16482;51.046;4.498;2023-11-21T01:16:44;8.20;;;7.40;;
29538;SDS011;16482;51.046;4.498;2023-11-21T01:22:03;7.82;;;7.00;;
29538;SDS011;16482;51.046;4.498;2023-11-21T01:24:44;8.32;;;7.30;;
29538;SDS011;16482;51.046;4.498;2023-11-21T01:27:44;7.82;;;6.95;;
29538;SDS011;16482;51.046;4.498;2023-11-21T01:30:18;8.73;;;7.13;;
29538;SDS011;16482;51.046;4.498;2023-11-21T01:32:57;9.07;;;8.02;;
29538;SDS011;16482;51.046;4.498;2023-11-21T01:35:53;8.40;;;7.20;;
29538;SDS011;16482;51.046;4.498;2023-11-21T01:38:31;7.93;;;6.55;;
29538;SDS011;16482;51.046;4.498;2023-11-21T01:41:07;8.65;;;7.03;;
29538;SDS011;16482;51.046;4.498;2023-11-21T01:44:01;9.32;;;6.82;;
29538;SDS011;16482;51.046;4.498;2023-11-21T01:46:55;8.57;;;7.05;;
29538;SDS011;16482;51.046;4.498;2023-11-21T01:52:36;7.38;;;6.45;;
29538;SDS011;16482;51.046;4.498;2023-11-21T01:55:17;8.95;;;6.95;;
29538;SDS011;16482;51.046;4.498;2023-11-21T01:57:54;10.93;;;7.88;;
29538;SDS011;16482;51.046;4.498;2023-11-21T02:00:30;7.55;;;6.75;;
29538;SDS011;16482;51.046;4.498;2023-11-21T02:03:15;9.30;;;7.07;;
29538;SDS011;16482;51.046;4.498;2023-11-21T02:06:07;8.52;;;7.57;;
29538;SDS011;16482;51.046;4.498;2023-11-21T02:09:24;7.95;;;6.57;;
29538;SDS011;16482;51.046;4.498;2023-11-21T02:12:14;8.10;;;6.82;;
29538;SDS011;16482;51.046;4.498;2023-11-21T02:14:51;8.48;;;6.93;;
29538;SDS011;16482;51.046;4.498;2023-11-21T02:17:35;8.98;;;7.53;;
29538;SDS011;16482;51.046;4.498;2023-11-21T02:20:35;9.60;;;6.85;;
29538;SDS011;16482;51.046;4.498;2023-11-21T02:23:16;8.27;;;7.03;;
29538;SDS011;16482;51.046;4.498;2023-11-21T02:26:14;7.65;;;6.82;;
29538;SDS011;16482;51.046;4.498;2023-11-21T02:29:08;8.18;;;6.90;;
29538;SDS011;16482;51.046;4.498;2023-11-21T02:31:56;7.38;;;6.35;;
29538;SDS011;16482;51.046;4.498;2023-11-21T02:34:32;8.18;;;7.15;;
29538;SDS011;16482;51.046;4.498;2023-11-21T02:37:04;7.85;;;7.00;;
29538;SDS011;16482;51.046;4.498;2023-11-21T02:39:45;7.63;;;6.45;;
29538;SDS011;16482;51.046;4.498;2023-11-21T02:42:35;7.35;;;6.40;;
29538;SDS011;16482;51.046;4.498;2023-11-21T02:45:14;7.63;;;6.80;;
29538;SDS011;16482;51.046;4.498;2023-11-21T02:48:00;8.10;;;6.72;;
29538;SDS011;16482;51.046;4.498;2023-11-21T02:50:29;7.43;;;6.57;;
29538;SDS011;16482;51.046;4.498;2023-11-21T02:53:10;7.60;;;6.22;;
29538;SDS011;16482;51.046;4.498;2023-11-21T02:55:45;7.18;;;6.22;;
29538;SDS011;16482;51.046;4.498;2023-11-21T02:58:32;7.80;;;6.72;;
29538;SDS011;16482;51.046;4.498;2023-11-21T03:01:11;7.40;;;6.25;;
29538;SDS011;16482;51.046;4.498;2023-11-21T03:03:47;7.68;;;6.75;;
29538;SDS011;16482;51.046;4.498;2023-11-21T03:06:39;7.32;;;6.57;;
29538;SDS011;16482;51.046;4.498;2023-11-21T03:09:11;8.05;;;6.50;;
29538;SDS011;16482;51.046;4.498;2023-11-21T03:11:51;7.90;;;6.72;;
29538;SDS011;16482;51.046;4.498;2023-11-21T03:14:28;9.13;;;6.18;;
29538;SDS011;16482;51.046;4.498;2023-11-21T03:17:17;6.85;;;6.15;;
29538;SDS011;16482;51.046;4.498;2023-11-21T03:22:55;7.28;;;6.20;;
29538;SDS011;16482;51.046;4.498;2023-11-21T03:25:34;7.97;;;6.10;;
29538;SDS011;16482;51.046;4.498;2023-11-21T03:28:36;7.50;;;6.70;;
29538;SDS011;16482;51.046;4.498;2023-11-21T03:31:05;7.30;;;6.55;;
29538;SDS011;16482;51.046;4.498;2023-11-21T03:33:31;6.97;;;6.22;;
29538;SDS011;16482;51.046;4.498;2023-11-21T03:36:20;7.43;;;6.45;;
29538;SDS011;16482;51.046;4.498;2023-11-21T03:38:48;7.03;;;6.18;;
29538;SDS011;16482;51.046;4.498;2023-11-21T03:41:37;7.63;;;6.38;;
29538;SDS011;16482;51.046;4.498;2023-11-21T03:44:05;8.88;;;6.30;;
29538;SDS011;16482;51.046;4.498;2023-11-21T03:47:02;6.90;;;5.97;;
29538;SDS011;16482;51.046;4.498;2023-11-21T03:49:56;7.60;;;6.25;;
29538;SDS011;16482;51.046;4.498;2023-11-21T03:52:35;6.93;;;6.10;;
29538;SDS011;16482;51.046;4.498;2023-11-21T03:55:18;6.85;;;5.88;;
29538;SDS011;16482;51.046;4.498;2023-11-21T03:58:06;7.53;;;5.88;;
29538;SDS011;16482;51.046;4.498;2023-11-21T04:00:56;7.35;;;6.10;;
29538;SDS011;16482;51.046;4.498;2023-11-21T04:03:32;6.78;;;5.72;;
29538;SDS011;16482;51.046;4.498;2023-11-21T04:06:31;7.13;;;5.90;;
29538;SDS011;16482;51.046;4.498;2023-11-21T04:09:10;7.72;;;5.70;;
29538;SDS011;16482;51.046;4.498;2023-11-21T04:12:01;6.30;;;5.63;;
29538;SDS011;16482;51.046;4.498;2023-11-21T04:14:43;6.32;;;5.60;;
29538;SDS011;16482;51.046;4.498;2023-11-21T04:17:39;6.82;;;5.85;;
29538;SDS011;16482;51.046;4.498;2023-11-21T04:20:18;6.70;;;6.00;;
29538;SDS011;16482;51.046;4.498;2023-11-21T04:22:57;6.78;;;5.50;;
29538;SDS011;16482;51.046;4.498;2023-11-21T04:25:28;6.80;;;6.07;;
29538;SDS011;16482;51.046;4.498;2023-11-21T04:28:07;7.78;;;5.88;;
29538;SDS011;16482;51.046;4.498;2023-11-21T04:30:38;6.10;;;5.22;;
29538;SDS011;16482;51.046;4.498;2023-11-21T04:33:28;6.57;;;5.53;;
29538;SDS011;16482;51.046;4.498;2023-11-21T04:36:04;6.20;;;5.60;;
29538;SDS011;16482;51.046;4.498;2023-11-21T04:39:06;6.10;;;4.95;;
29538;SDS011;16482;51.046;4.498;2023-11-21T04:41:53;8.35;;;5.53;;
29538;SDS011;16482;51.046;4.498;2023-11-21T04:44:29;6.43;;;5.57;;
29538;SDS011;16482;51.046;4.498;2023-11-21T04:47:18;6.38;;;5.22;;
29538;SDS011;16482;51.046;4.498;2023-11-21T04:49:47;7.55;;;6.10;;
29538;SDS011;16482;51.046;4.498;2023-11-21T04:52:23;7.90;;;5.55;;
29538;SDS011;16482;51.046;4.498;2023-11-21T04:55:19;5.63;;;4.93;;
29538;SDS011;16482;51.046;4.498;2023-11-21T05:00:54;5.97;;;4.85;;
29538;SDS011;16482;51.046;4.498;2023-11-21T05:03:35;6.38;;;5.20;;
29538;SDS011;16482;51.046;4.498;2023-11-21T05:06:14;7.55;;;5.63;;
29538;SDS011;16482;51.046;4.498;2023-11-21T05:08:52;7.22;;;5.05;;
29538;SDS011;16482;51.046;4.498;2023-11-21T05:11:37;6.32;;;4.82;;
29538;SDS011;16482;51.046;4.498;2023-11-21T05:14:16;6.78;;;4.97;;
29538;SDS011;16482;51.046;4.498;2023-11-21T05:17:12;5.80;;;4.82;;
29538;SDS011;16482;51.046;4.498;2023-11-21T05:19:38;6.30;;;4.90;;
29538;SDS011;16482;51.046;4.498;2023-11-21T05:22:16;6.75;;;5.00;;
29538;SDS011;16482;51.046;4.498;2023-11-21T05:24:56;5.22;;;4.72;;
29538;SDS011;16482;51.046;4.498;2023-11-21T05:27:46;5.90;;;4.85;;
29538;SDS011;16482;51.046;4.498;2023-11-21T05:30:31;5.55;;;4.80;;
29538;SDS011;16482;51.046;4.498;2023-11-21T05:33:23;5.32;;;4.82;;
29538;SDS011;16482;51.046;4.498;2023-11-21T05:36:02;6.13;;;4.53;;
29538;SDS011;16482;51.046;4.498;2023-11-21T05:38:38;5.47;;;4.60;;
29538;SDS011;16482;51.046;4.498;2023-11-21T05:41:17;6.07;;;4.50;;
29538;SDS011;16482;51.046;4.498;2023-11-21T05:44:03;5.70;;;4.57;;
29538;SDS011;16482;51.046;4.498;2023-11-21T05:49:45;6.35;;;4.38;;
29538;SDS011;16482;51.046;4.498;2023-11-21T05:52:28;8.45;;;4.68;;
29538;SDS011;16482;51.046;4.498;2023-11-21T05:55:22;4.70;;;3.75;;
29538;SDS011;16482;51.046;4.498;2023-11-21T05:58:19;5.35;;;4.25;;
29538;SDS011;16482;51.046;4.498;2023-11-21T06:01:05;5.47;;;4.32;;
29538;SDS011;16482;51.046;4.498;2023-11-21T06:06:42;4.90;;;4.05;;
29538;SDS011;16482;51.046;4.498;2023-11-21T06:09:24;5.93;;;4.47;;
29538;SDS011;16482;51.046;4.498;2023-11-21T06:12:22;5.20;;;4.28;;
29538;SDS011;16482;51.046;4.498;2023-11-21T06:15:10;4.30;;;3.88;;
29538;SDS011;16482;51.046;4.498;2023-11-21T06:17:51;5.57;;;3.75;;
29538;SDS011;16482;51.046;4.498;2023-11-21T06:20:59;5.10;;;3.78;;
29538;SDS011;16482;51.046;4.498;2023-11-21T06:23:47;3.97;;;3.58;;
29538;SDS011;16482;51.046;4.498;2023-11-21T06:26:28;5.38;;;3.90;;
29538;SDS011;16482;51.046;4.498;2023-11-21T06:29:25;6.20;;;3.80;;
29538;SDS011;16482;51.046;4.498;2023-11-21T06:34:37;3.83;;;3.25;;
29538;SDS011;16482;51.046;4.498;2023-11-21T06:37:15;5.07;;;3.65;;
29538;SDS011;16482;51.046;4.498;2023-11-21T06:39:42;5.82;;;3.45;;
29538;SDS011;16482;51.046;4.498;2023-11-21T06:42:16;3.88;;;3.28;;
29538;SDS011;16482;51.046;4.498;2023-11-21T06:45:06;4.78;;;3.38;;
29538;SDS011;16482;51.046;4.498;2023-11-21T06:47:42;4.38;;;3.60;;
29538;SDS011;16482;51.046;4.498;2023-11-21T06:50:14;4.63;;;3.50;;
29538;SDS011;16482;51.046;4.498;2023-11-21T06:52:58;3.40;;;3.05;;
29538;SDS011;16482;51.046;4.498;2023-11-21T06:56:01;4.70;;;3.50;;
29538;SDS011;16482;51.046;4.498;2023-11-21T06:58:37;3.50;;;3.05;;
29538;SDS011;16482;51.046;4.498;2023-11-21T07:01:13;4.13;;;3.15;;
29538;SDS011;16482;51.046;4.498;2023-11-21T07:04:08;4.40;;;2.92;;
29538;SDS011;16482;51.046;4.498;2023-11-21T07:06:57;4.40;;;3.25;;
29538;SDS011;16482;51.046;4.498;2023-11-21T07:09:35;4.30;;;3.33;;
29538;SDS011;16482;51.046;4.498;2023-11-21T07:12:14;3.33;;;2.90;;
29538;SDS011;16482;51.046;4.498;2023-11-21T07:14:53;4.53;;;3.40;;
29538;SDS011;16482;51.046;4.498;2023-11-21T07:17:41;5.47;;;3.55;;
29538;SDS011;16482;51.046;4.498;2023-11-21T07:20:14;5.55;;;3.45;;
29538;SDS011;16482;51.046;4.498;2023-11-21T07:22:45;3.35;;;3.03;;
29538;SDS011;16482;51.046;4.498;2023-11-21T07:25:24;4.63;;;3.22;;
29538;SDS011;16482;51.046;4.498;2023-11-21T07:28:25;4.25;;;3.38;;
29538;SDS011;16482;51.046;4.498;2023-11-21T07:31:03;5.63;;;3.00;;
29538;SDS011;16482;51.046;4.498;2023-11-21T07:33:39;4.85;;;3.03;;
29538;SDS011;16482;51.046;4.498;2023-11-21T07:36:19;3.50;;;3.05;;
29538;SDS011;16482;51.046;4.498;2023-11-21T07:38:58;3.88;;;3.20;;
29538;SDS011;16482;51.046;4.498;2023-11-21T07:41:34;4.25;;;3.05;;
29538;SDS011;16482;51.046;4.498;2023-11-21T07:44:14;3.75;;;3.03;;
29538;SDS011;16482;51.046;4.498;2023-11-21T07:46:53;4.85;;;3.10;;
29538;SDS011;16482;51.046;4.498;2023-11-21T07:49:32;9.88;;;3.30;;
29538;SDS011;16482;51.046;4.498;2023-11-21T07:52:14;4.88;;;3.35;;
29538;SDS011;16482;51.046;4.498;2023-11-21T07:54:52;4.25;;;3.10;;
29538;SDS011;16482;51.046;4.498;2023-11-21T07:57:48;4.80;;;3.20;;
29538;SDS011;16482;51.046;4.498;2023-11-21T08:00:37;4.28;;;2.92;;
29538;SDS011;16482;51.046;4.498;2023-11-21T08:03:12;4.45;;;3.13;;
29538;SDS011;16482;51.046;4.498;2023-11-21T08:05:53;4.70;;;3.03;;
29538;SDS011;16482;51.046;4.498;2023-11-21T08:08:50;4.85;;;3.13;;
29538;SDS011;16482;51.046;4.498;2023-11-21T08:11:31;5.45;;;3.28;;
29538;SDS011;16482;51.046;4.498;2023-11-21T08:14:10;3.90;;;3.17;;
29538;SDS011;16482;51.046;4.498;2023-11-21T08:16:49;5.05;;;3.40;;
29538;SDS011;16482;51.046;4.498;2023-11-21T08:19:33;4.10;;;2.90;;
29538;SDS011;16482;51.046;4.498;2023-11-21T08:22:16;4.75;;;3.40;;
29538;SDS011;16482;51.046;4.498;2023-11-21T08:24:58;4.45;;;3.45;;
29538;SDS011;16482;51.046;4.498;2023-11-21T08:27:43;6.07;;;3.53;;
29538;SDS011;16482;51.046;4.498;2023-11-21T08:30:21;3.88;;;3.05;;
29538;SDS011;16482;51.046;4.498;2023-11-21T08:33:00;5.30;;;3.55;;
29538;SDS011;16482;51.046;4.498;2023-11-21T08:35:36;6.32;;;3.22;;
29538;SDS011;16482;51.046;4.498;2023-11-21T08:41:11;5.35;;;3.38;;
29538;SDS011;16482;51.046;4.498;2023-11-21T08:43:50;4.65;;;3.38;;
29538;SDS011;16482;51.046;4.498;2023-11-21T08:46:32;5.80;;;3.72;;
29538;SDS011;16482;51.046;4.498;2023-11-21T08:52:01;6.13;;;3.92;;
29538;SDS011;16482;51.046;4.498;2023-11-21T08:54:37;5.93;;;3.55;;
29538;SDS011;16482;51.046;4.498;2023-11-21T08:57:23;5.50;;;3.90;;
29538;SDS011;16482;51.046;4.498;2023-11-21T09:00:09;5.90;;;3.72;;
29538;SDS011;16482;51.046;4.498;2023-11-21T09:05:38;6.10;;;4.10;;
29538;SDS011;16482;51.046;4.498;2023-11-21T09:08:16;5.20;;;4.13;;
29538;SDS011;16482;51.046;4.498;2023-11-21T09:11:14;6.35;;;4.03;;
29538;SDS011;16482;51.046;4.498;2023-11-21T09:14:02;6.75;;;4.05;;
29538;SDS011;16482;51.046;4.498;2023-11-21T09:19:36;5.35;;;4.07;;
29538;SDS011;16482;51.046;4.498;2023-11-21T09:22:22;6.88;;;4.57;;
29538;SDS011;16482;51.046;4.498;2023-11-21T09:25:03;6.85;;;4.95;;
29538;SDS011;16482;51.046;4.498;2023-11-21T09:27:49;8.45;;;5.10;;
29538;SDS011;16482;51.046;4.498;2023-11-21T09:30:37;9.95;;;5.45;;
29538;SDS011;16482;51.046;4.498;2023-11-21T09:33:31;8.10;;;5.90;;
29538;SDS011;16482;51.046;4.498;2023-11-21T09:36:16;8.10;;;6.07;;
29538;SDS011;16482;51.046;4.498;2023-11-21T09:38:57;9.35;;;6.40;;
29538;SDS011;16482;51.046;4.498;2023-11-21T09:44:48;8.38;;;6.32;;
29538;SDS011;16482;51.046;4.498;2023-11-21T09:47:51;7.63;;;6.07;;
29538;SDS011;16482;51.046;4.498;2023-11-21T09:50:36;8.13;;;6.10;;
29538;SDS011;16482;51.046;4.498;2023-11-21T09:53:32;9.20;;;6.25;;
29538;SDS011;16482;51.046;4.498;2023-11-21T09:56:13;8.95;;;6.47;;
29538;SDS011;16482;51.046;4.498;2023-11-21T09:58:55;7.90;;;6.40;;
29538;SDS011;16482;51.046;4.498;2023-11-21T10:01:55;8.65;;;6.38;;
29538;SDS011;16482;51.046;4.498;2023-11-21T10:04:45;8.88;;;7.03;;
29538;SDS011;16482;51.046;4.498;2023-11-21T10:07:47;10.52;;;7.30;;
29538;SDS011;16482;51.046;4.498;2023-11-21T10:10:23;9.55;;;7.60;;
29538;SDS011;16482;51.046;4.498;2023-11-21T10:13:11;8.95;;;7.47;;
29538;SDS011;16482;51.046;4.498;2023-11-21T10:16:09;10.30;;;7.35;;
29538;SDS011;16482;51.046;4.498;2023-11-21T10:19:05;11.80;;;8.27;;
29538;SDS011;16482;51.046;4.498;2023-11-21T10:21:59;10.27;;;7.88;;
29538;SDS011;16482;51.046;4.498;2023-11-21T10:24:39;10.23;;;8.02;;
29538;SDS011;16482;51.046;4.498;2023-11-21T10:27:33;10.10;;;8.02;;
29538;SDS011;16482;51.046;4.498;2023-11-21T10:30:17;9.90;;;7.75;;
29538;SDS011;16482;51.046;4.498;2023-11-21T10:33:11;9.80;;;8.07;;
29538;SDS011;16482;51.046;4.498;2023-11-21T10:36:01;10.43;;;8.15;;
29538;SDS011;16482;51.046;4.498;2023-11-21T10:38:41;8.90;;;7.25;;
29538;SDS011;16482;51.046;4.498;2023-11-21T10:41:21;8.93;;;7.32;;
29538;SDS011;16482;51.046;4.498;2023-11-21T10:43:57;7.88;;;6.72;;
29538;SDS011;16482;51.046;4.498;2023-11-21T10:46:36;8.20;;;6.45;;
29538;SDS011;16482;51.046;4.498;2023-11-21T10:55:29;7.80;;;6.40;;
29538;SDS011;16482;51.046;4.498;2023-11-21T10:58:32;8.90;;;6.45;;
29538;SDS011;16482;51.046;4.498;2023-11-21T11:01:11;7.95;;;5.80;;
29538;SDS011;16482;51.046;4.498;2023-11-21T11:04:08;7.18;;;5.53;;
29538;SDS011;16482;51.046;4.498;2023-11-21T11:07:05;6.13;;;5.20;;
29538;SDS011;16482;51.046;4.498;2023-11-21T11:12:54;8.50;;;5.82;;
29538;SDS011;16482;51.046;4.498;2023-11-21T11:15:48;7.32;;;5.80;;
29538;SDS011;16482;51.046;4.498;2023-11-21T11:18:37;8.23;;;5.53;;
29538;SDS011;16482;51.046;4.498;2023-11-21T11:24:17;6.88;;;5.05;;
29538;SDS011;16482;51.046;4.498;2023-11-21T11:36:27;6.88;;;4.90;;
29538;SDS011;16482;51.046;4.498;2023-11-21T11:42:19;5.85;;;4.60;;
29538;SDS011;16482;51.046;4.498;2023-11-21T11:45:31;6.20;;;5.07;;
29538;SDS011;16482;51.046;4.498;2023-11-21T11:48:08;7.22;;;5.00;;
29538;SDS011;16482;51.046;4.498;2023-11-21T11:54:08;6.25;;;4.45;;
29538;SDS011;16482;51.046;4.498;2023-11-21T11:57:11;9.32;;;4.50;;
29538;SDS011;16482;51.046;4.498;2023-11-21T12:02:59;5.97;;;4.25;;
29538;SDS011;16482;51.046;4.498;2023-11-21T12:05:40;5.70;;;4.05;;
29538;SDS011;16482;51.046;4.498;2023-11-21T12:08:28;6.28;;;4.40;;
29538;SDS011;16482;51.046;4.498;2023-11-21T12:11:13;7.00;;;4.72;;
29538;SDS011;16482;51.046;4.498;2023-11-21T12:14:08;4.80;;;4.13;;
29538;SDS011;16482;51.046;4.498;2023-11-21T12:16:48;5.68;;;4.18;;
29538;SDS011;16482;51.046;4.498;2023-11-21T12:19:43;6.03;;;4.13;;
29538;SDS011;16482;51.046;4.498;2023-11-21T12:22:39;4.90;;;3.65;;
29538;SDS011;16482;51.046;4.498;2023-11-21T12:25:22;4.47;;;3.38;;
29538;SDS011;16482;51.046;4.498;2023-11-21T12:28:00;5.45;;;3.92;;
29538;SDS011;16482;51.046;4.498;2023-11-21T12:30:47;6.57;;;3.63;;
29538;SDS011;16482;51.046;4.498;2023-11-21T12:33:23;4.80;;;3.47;;
29538;SDS011;16482;51.046;4.498;2023-11-21T12:36:20;7.78;;;3.80;;
29538;SDS011;16482;51.046;4.498;2023-11-21T12:39:23;5.22;;;3.42;;
29538;SDS011;16482;51.046;4.498;2023-11-21T12:41:59;4.32;;;3.45;;
29538;SDS011;16482;51.046;4.498;2023-11-21T12:44:38;3.72;;;3.28;;
29538;SDS011;16482;51.046;4.498;2023-11-21T12:47:17;6.45;;;3.50;;
29538;SDS011;16482;51.046;4.498;2023-11-21T12:49:50;4.35;;;3.35;;
29538;SDS011;16482;51.046;4.498;2023-11-21T12:52:45;4.65;;;3.42;;
29538;SDS011;16482;51.046;4.498;2023-11-21T12:55:24;4.43;;;3.00;;
29538;SDS011;16482;51.046;4.498;2023-11-21T12:58:33;4.85;;;3.20;;
29538;SDS011;16482;51.046;4.498;2023-11-21T13:04:47;4.57;;;3.13;;
29538;SDS011;16482;51.046;4.498;2023-11-21T13:07:43;4.80;;;3.17;;
29538;SDS011;16482;51.046;4.498;2023-11-21T13:10:27;3.92;;;2.72;;
29538;SDS011;16482;51.046;4.498;2023-11-21T13:13:04;3.47;;;2.75;;
29538;SDS011;16482;51.046;4.498;2023-11-21T13:18:52;3.50;;;2.55;;
29538;SDS011;16482;51.046;4.498;2023-11-21T13:21:48;3.00;;;2.63;;
29538;SDS011;16482;51.046;4.498;2023-11-21T13:24:36;4.03;;;2.50;;
29538;SDS011;16482;51.046;4.498;2023-11-21T13:27:12;3.40;;;2.78;;
29538;SDS011;16482;51.046;4.498;2023-11-21T13:30:16;3.08;;;2.25;;
29538;SDS011;16482;51.046;4.498;2023-11-21T13:33:12;3.67;;;2.85;;
29538;SDS011;16482;51.046;4.498;2023-11-21T13:36:00;2.50;;;2.15;;
29538;SDS011;16482;51.046;4.498;2023-11-21T13:38:41;3.08;;;2.50;;
29538;SDS011;16482;51.046;4.498;2023-11-21T13:41:45;3.85;;;2.53;;
29538;SDS011;16482;51.046;4.498;2023-11-21T13:44:33;2.33;;;2.13;;
29538;SDS011;16482;51.046;4.498;2023-11-21T13:47:15;3.17;;;2.30;;
29538;SDS011;16482;51.046;4.498;2023-11-21T13:49:54;2.90;;;2.00;;
29538;SDS011;16482;51.046;4.498;2023-11-21T13:52:52;2.70;;;1.95;;
29538;SDS011;16482;51.046;4.498;2023-11-21T13:55:38;4.65;;;2.28;;
29538;SDS011;16482;51.046;4.498;2023-11-21T13:58:14;2.28;;;2.08;;
29538;SDS011;16482;51.046;4.498;2023-11-21T14:01:23;3.30;;;2.17;;
29538;SDS011;16482;51.046;4.498;2023-11-21T14:04:10;4.35;;;2.20;;
29538;SDS011;16482;51.046;4.498;2023-11-21T14:06:55;2.70;;;2.38;;
29538;SDS011;16482;51.046;4.498;2023-11-21T14:09:33;2.55;;;2.00;;
29538;SDS011;16482;51.046;4.498;2023-11-21T14:12:26;2.53;;;2.10;;
29538;SDS011;16482;51.046;4.498;2023-11-21T14:15:24;2.72;;;2.22;;
29538;SDS011;16482;51.046;4.498;2023-11-21T14:18:04;2.50;;;2.10;;
29538;SDS011;16482;51.046;4.498;2023-11-21T14:21:01;3.47;;;2.13;;
29538;SDS011;16482;51.046;4.498;2023-11-21T14:23:42;2.75;;;2.15;;
29538;SDS011;16482;51.046;4.498;2023-11-21T14:26:23;3.97;;;2.40;;
29538;SDS011;16482;51.046;4.498;2023-11-21T14:28:57;2.70;;;2.10;;
29538;SDS011;16482;51.046;4.498;2023-11-21T14:31:45;2.45;;;2.03;;
29538;SDS011;16482;51.046;4.498;2023-11-21T14:34:24;5.20;;;2.05;;
29538;SDS011;16482;51.046;4.498;2023-11-21T14:37:03;4.07;;;2.38;;
29538;SDS011;16482;51.046;4.498;2023-11-21T14:39:34;2.97;;;2.05;;
29538;SDS011;16482;51.046;4.498;2023-11-21T14:42:14;2.45;;;1.85;;
29538;SDS011;16482;51.046;4.498;2023-11-21T14:47:51;2.38;;;1.80;;
29538;SDS011;16482;51.046;4.498;2023-11-21T14:50:51;3.63;;;2.08;;
29538;SDS011;16482;51.046;4.498;2023-11-21T14:53:46;1.63;;;1.50;;
29538;SDS011;16482;51.046;4.498;2023-11-21T14:56:35;2.28;;;1.80;;
29538;SDS011;16482;51.046;4.498;2023-11-21T14:59:31;2.22;;;1.80;;
29538;SDS011;16482;51.046;4.498;2023-11-21T15:02:11;2.10;;;1.80;;
29538;SDS011;16482;51.046;4.498;2023-11-21T15:04:53;1.73;;;1.63;;
29538;SDS011;16482;51.046;4.498;2023-11-21T15:07:29;2.63;;;2.00;;
29538;SDS011;16482;51.046;4.498;2023-11-21T15:10:15;3.75;;;1.92;;
29538;SDS011;16482;51.046;4.498;2023-11-21T15:16:12;2.30;;;1.75;;
29538;SDS011;16482;51.046;4.498;2023-11-21T15:21:58;2.15;;;1.65;;
29538;SDS011;16482;51.046;4.498;2023-11-21T15:24:38;1.83;;;1.52;;
29538;SDS011;16482;51.046;4.498;2023-11-21T15:27:32;1.90;;;1.60;;
29538;SDS011;16482;51.046;4.498;2023-11-21T15:30:27;2.55;;;2.05;;
29538;SDS011;16482;51.046;4.498;2023-11-21T15:33:07;2.35;;;2.08;;
29538;SDS011;16482;51.046;4.498;2023-11-21T15:35:45;3.42;;;1.67;;
29538;SDS011;16482;51.046;4.498;2023-11-21T15:38:27;3.03;;;2.05;;
29538;SDS011;16482;51.046;4.498;2023-11-21T15:40:55;4.00;;;1.60;;
29538;SDS011;16482;51.046;4.498;2023-11-21T15:43:38;1.67;;;1.52;;
29538;SDS011;16482;51.046;4.498;2023-11-21T15:46:16;2.33;;;1.73;;
29538;SDS011;16482;51.046;4.498;2023-11-21T15:49:01;1.63;;;1.40;;
29538;SDS011;16482;51.046;4.498;2023-11-21T15:51:39;1.80;;;1.60;;
29538;SDS011;16482;51.046;4.498;2023-11-21T15:54:28;2.40;;;2.00;;
29538;SDS011;16482;51.046;4.498;2023-11-21T15:57:05;2.53;;;2.10;;
29538;SDS011;16482;51.046;4.498;2023-11-21T16:00:01;3.92;;;2.33;;
29538;SDS011;16482;51.046;4.498;2023-11-21T16:02:46;2.40;;;1.58;;
29538;SDS011;16482;51.046;4.498;2023-11-21T16:05:37;2.33;;;1.83;;
29538;SDS011;16482;51.046;4.498;2023-11-21T16:11:02;1.95;;;1.75;;
29538;SDS011;16482;51.046;4.498;2023-11-21T16:13:31;2.17;;;1.98;;
29538;SDS011;16482;51.046;4.498;2023-11-21T16:16:08;2.13;;;1.75;;
29538;SDS011;16482;51.046;4.498;2023-11-21T16:18:52;3.25;;;1.98;;
29538;SDS011;16482;51.046;4.498;2023-11-21T16:21:27;2.78;;;1.92;;
29538;SDS011;16482;51.046;4.498;2023-11-21T16:24:06;2.30;;;1.63;;
29538;SDS011;16482;51.046;4.498;2023-11-21T16:26:42;2.50;;;1.77;;
29538;SDS011;16482;51.046;4.498;2023-11-21T16:32:20;2.03;;;1.60;;
29538;SDS011;16482;51.046;4.498;2023-11-21T16:34:58;2.58;;;1.75;;
29538;SDS011;16482;51.046;4.498;2023-11-21T16:37:37;1.95;;;1.75;;
29538;SDS011;16482;51.046;4.498;2023-11-21T16:40:14;1.90;;;1.52;;
29538;SDS011;16482;51.046;4.498;2023-11-21T16:42:52;2.53;;;1.40;;
29538;SDS011;16482;51.046;4.498;2023-11-21T16:45:31;1.67;;;1.50;;
29538;SDS011;16482;51.046;4.498;2023-11-21T16:48:07;1.92;;;1.70;;
29538;SDS011;16482;51.046;4.498;2023-11-21T16:50:52;2.30;;;1.45;;
29538;SDS011;16482;51.046;4.498;2023-11-21T16:53:31;1.80;;;1.40;;
29538;SDS011;16482;51.046;4.498;2023-11-21T16:56:25;1.80;;;1.45;;
29538;SDS011;16482;51.046;4.498;2023-11-21T16:59:04;2.10;;;1.90;;
29538;SDS011;16482;51.046;4.498;2023-11-21T17:01:34;1.70;;;1.33;;
29538;SDS011;16482;51.046;4.498;2023-11-21T17:04:03;1.60;;;1.40;;
29538;SDS011;16482;51.046;4.498;2023-11-21T17:06:40;1.50;;;1.40;;
29538;SDS011;16482;51.046;4.498;2023-11-21T17:09:09;2.15;;;1.30;;
29538;SDS011;16482;51.046;4.498;2023-11-21T17:11:55;1.70;;;1.60;;
29538;SDS011;16482;51.046;4.498;2023-11-21T17:14:35;1.70;;;1.52;;
29538;SDS011;16482;51.046;4.498;2023-11-21T17:17:27;2.67;;;1.60;;
29538;SDS011;16482;51.046;4.498;2023-11-21T17:20:26;2.53;;;1.67;;
29538;SDS011;16482;51.046;4.498;2023-11-21T17:22:54;4.53;;;1.80;;
29538;SDS011;16482;51.046;4.498;2023-11-21T17:25:31;1.85;;;1.50;;
29538;SDS011;16482;51.046;4.498;2023-11-21T17:28:07;1.67;;;1.58;;
29538;SDS011;16482;51.046;4.498;2023-11-21T17:31:09;1.70;;;1.60;;
29538;SDS011;16482;51.046;4.498;2023-11-21T17:33:43;2.00;;;1.80;;
29538;SDS011;16482;51.046;4.498;2023-11-21T17:36:36;1.80;;;1.50;;
29538;SDS011;16482;51.046;4.498;2023-11-21T17:39:30;2.30;;;1.70;;
29538;SDS011;16482;51.046;4.498;2023-11-21T17:42:08;1.50;;;1.40;;
29538;SDS011;16482;51.046;4.498;2023-11-21T17:44:52;1.63;;;1.50;;
29538;SDS011;16482;51.046;4.498;2023-11-21T17:50:58;2.20;;;1.40;;
29538;SDS011;16482;51.046;4.498;2023-11-21T17:53:45;2.45;;;1.60;;
29538;SDS011;16482;51.046;4.498;2023-11-21T17:59:36;2.00;;;1.77;;
29538;SDS011;16482;51.046;4.498;2023-11-21T18:02:21;1.80;;;1.55;;